Time;durP1;ratioP1;P1;durP2;ratioP2;P2;SDS_P1;SDS_P2;PMS_P1;PMS_P2;Temp;Humidity;BMP_temperature;BMP_pressure;BME280_temperature;BME280_humidity;BME280_pressure;Samples;Min_cycle;Max_cycle;Signal;HPM_P1;HPM_P2
2021/12/04 00:01:26;;;;;;;1.05;0.82;;;8.60;74.40;;;;;;5021921;28;20116;-46
2021/12/04 00:03:59;;;;;;;1.20;1.00;;;8.50;74.30;;;;;;5026144;28;20485;-46
2021/12/04 00:06:30;;;;;;;1.20;0.95;;;8.60;74.30;;;;;;5003155;28;20586;-44
2021/12/04 00:09:04;;;;;;;;;;;8.60;74.30;;;;;;5011098;28;20041;-44
2021/12/04 00:11:41;;;;;;;1.48;1.38;;;8.60;74.10;;;;;;5010013;28;19925;-45
2021/12/04 00:14:08;;;;;;;2.17;1.33;;;8.60;73.90;;;;;;5009072;28;20046;-45
2021/12/04 00:16:37;;;;;;;1.27;1.15;;;8.60;74.00;;;;;;5018604;28;20073;-45
2021/12/04 00:19:08;;;;;;;1.15;0.80;;;8.60;74.00;;;;;;5008992;28;20048;-43
2021/12/04 00:21:38;;;;;;;1.27;1.08;;;8.60;74.20;;;;;;5023839;28;20049;-44
2021/12/04 00:24:06;;;;;;;1.33;0.70;;;8.60;74.20;;;;;;5011305;28;20058;-43
2021/12/04 00:26:33;;;;;;;0.88;0.82;;;8.60;74.40;;;;;;5021239;28;20049;-44
2021/12/04 00:28:59;;;;;;;0.90;0.57;;;8.60;74.40;;;;;;5029466;28;20460;-43
2021/12/04 00:31:27;;;;;;;0.65;0.45;;;8.60;74.40;;;;;;5029284;28;20069;-44
2021/12/04 00:33:59;;;;;;;0.50;0.50;;;8.60;74.50;;;;;;5014789;28;20055;-45
2021/12/04 00:36:33;;;;;;;1.70;0.73;;;8.60;74.20;;;;;;5001833;28;20811;-44
2021/12/04 00:50:07;;;;;;;0.73;0.55;;;8.60;73.90;;;;;;5012550;28;20045;-44
2021/12/04 00:52:36;;;;;;;1.60;0.40;;;8.60;73.90;;;;;;5004769;28;20041;-44
2021/12/04 00:55:05;;;;;;;0.60;0.57;;;8.60;73.90;;;;;;5024409;28;20437;-45
2021/12/04 00:57:34;;;;;;;0.57;0.40;;;8.60;74.00;;;;;;5028902;28;20694;-44
2021/12/04 01:00:02;;;;;;;3.13;0.50;;;8.60;74.10;;;;;;5013629;28;20053;-43
2021/12/04 01:02:28;;;;;;;2.05;0.70;;;8.60;74.20;;;;;;5012529;28;20534;-44
2021/12/04 01:04:57;;;;;;;0.60;0.50;;;8.60;74.10;;;;;;5029675;28;20045;-44
2021/12/04 01:07:27;;;;;;;0.70;0.60;;;8.60;74.10;;;;;;5019702;28;20050;-43
2021/12/04 01:09:59;;;;;;;0.98;0.82;;;8.60;74.20;;;;;;5009078;28;20042;-44
2021/12/04 01:12:27;;;;;;;0.60;0.60;;;8.60;74.20;;;;;;5026997;28;20045;-43
2021/12/04 01:14:54;;;;;;;0.75;0.50;;;8.60;74.20;;;;;;5010621;28;20044;-44
2021/12/04 01:17:23;;;;;;;0.52;0.52;;;8.60;74.40;;;;;;5010439;28;20088;-45
2021/12/04 01:19:49;;;;;;;0.77;0.77;;;8.60;74.40;;;;;;5008608;28;20041;-43
2021/12/04 01:22:20;;;;;;;0.73;0.60;;;8.60;74.50;;;;;;5013904;28;20045;-44
2021/12/04 01:24:48;;;;;;;4.75;0.57;;;8.60;74.60;;;;;;5029609;28;20068;-44
2021/12/04 01:27:14;;;;;;;0.68;0.40;;;8.60;74.60;;;;;;5027880;28;20619;-45
2021/12/04 01:29:43;;;;;;;0.75;0.38;;;8.60;74.60;;;;;;5007081;28;20053;-44
2021/12/04 01:32:12;;;;;;;0.55;0.55;;;8.70;74.60;;;;;;5009269;28;20096;-43
2021/12/04 01:34:41;;;;;;;0.30;0.30;;;8.60;74.50;;;;;;5001909;28;20034;-44
2021/12/04 01:37:17;;;;;;;0.63;0.63;;;8.60;74.50;;;;;;5008343;28;20513;-45
2021/12/04 01:39:44;;;;;;;0.60;0.60;;;8.60;74.50;;;;;;5000295;28;20108;-45
2021/12/04 01:42:10;;;;;;;2.45;0.50;;;8.70;74.60;;;;;;5014294;28;20065;-43
2021/12/04 01:44:39;;;;;;;0.98;0.60;;;8.70;74.60;;;;;;5013125;28;20041;-43
2021/12/04 01:47:16;;;;;;;0.40;0.40;;;8.70;74.60;;;;;;5029218;28;20125;-47
2021/12/04 01:49:49;;;;;;;0.47;0.47;;;8.70;75.30;;;;;;5011867;28;20064;-45
2021/12/04 01:52:19;;;;;;;1.08;0.30;;;8.70;74.70;;;;;;5027968;28;20120;-48
2021/12/04 01:54:50;;;;;;;0.47;0.43;;;8.70;74.80;;;;;;5032825;28;20041;-45
2021/12/04 01:57:19;;;;;;;0.25;0.25;;;8.70;74.80;;;;;;5017929;28;20050;-46
2021/12/04 01:59:48;;;;;;;0.30;0.30;;;8.70;74.80;;;;;;5032529;28;20099;-47
2021/12/04 02:02:17;;;;;;;1.02;0.30;;;8.70;74.90;;;;;;5031882;28;20103;-48
2021/12/04 02:04:44;;;;;;;1.05;0.50;;;8.70;75.00;;;;;;5033228;28;20060;-48
2021/12/04 02:07:19;;;;;;;0.43;0.43;;;8.70;75.00;;;;;;5018834;28;20060;-44
2021/12/04 02:09:46;;;;;;;2.15;0.50;;;8.70;75.00;;;;;;5032153;28;20045;-45
2021/12/04 02:12:13;;;;;;;0.65;0.40;;;8.70;75.00;;;;;;5033454;28;20045;-46
2021/12/04 02:14:41;;;;;;;0.40;0.38;;;8.70;75.10;;;;;;5013832;28;20837;-48
2021/12/04 02:17:09;;;;;;;0.30;0.30;;;8.70;75.10;;;;;;5014265;28;20037;-47
2021/12/04 02:19:35;;;;;;;0.40;0.30;;;8.70;75.10;;;;;;5031790;28;20033;-48
2021/12/04 02:22:03;;;;;;;0.45;0.40;;;8.70;75.10;;;;;;5032188;28;20076;-46
2021/12/04 02:24:29;;;;;;;0.50;0.40;;;8.70;75.10;;;;;;5018509;28;20076;-44
2021/12/04 02:26:56;;;;;;;0.25;0.25;;;8.80;75.10;;;;;;5021564;28;20058;-47
2021/12/04 02:29:23;;;;;;;0.40;0.30;;;8.70;75.10;;;;;;5031250;28;20041;-47
2021/12/04 02:31:53;;;;;;;0.55;0.43;;;8.70;75.20;;;;;;5022425;28;20101;-46
2021/12/04 02:34:26;;;;;;;0.40;0.40;;;8.80;75.30;;;;;;5016208;28;20042;-46
2021/12/04 02:36:53;;;;;;;1.23;0.25;;;8.70;75.30;;;;;;5022489;28;20478;-43
2021/12/04 02:39:28;;;;;;;0.90;0.55;;;8.70;75.30;;;;;;5025956;28;20433;-48
2021/12/04 02:41:56;;;;;;;0.38;0.38;;;8.80;75.30;;;;;;5022439;28;20037;-47
2021/12/04 02:44:37;;;;;;;1.05;0.40;;;8.80;75.30;;;;;;5032898;28;20034;-44
2021/12/04 02:47:05;;;;;;;0.77;0.77;;;8.80;75.30;;;;;;5027512;28;20083;-44
2021/12/04 02:49:34;;;;;;;0.80;0.60;;;8.80;75.30;;;;;;5012014;28;20095;-44
2021/12/04 02:52:04;;;;;;;1.00;0.90;;;8.80;75.30;;;;;;5023260;28;20042;-44
2021/12/04 02:54:35;;;;;;;0.90;0.73;;;8.80;75.30;;;;;;5011621;28;20038;-43
2021/12/04 02:57:05;;;;;;;0.95;0.75;;;8.80;75.30;;;;;;5027418;28;20034;-46
2021/12/04 02:59:37;;;;;;;0.65;0.63;;;8.80;75.30;;;;;;5031964;28;20578;-46
2021/12/04 03:02:17;;;;;;;1.55;0.60;;;8.80;75.40;;;;;;5017007;28;20100;-43
2021/12/04 03:04:50;;;;;;;0.93;0.57;;;8.80;75.30;;;;;;5032523;28;20545;-43
2021/12/04 03:07:18;;;;;;;0.85;0.85;;;8.80;75.30;;;;;;5023464;28;20092;-43
2021/12/04 03:09:50;;;;;;;1.27;0.50;;;8.80;75.40;;;;;;5011220;28;20088;-44
2021/12/04 03:12:19;;;;;;;0.88;0.60;;;8.80;75.50;;;;;;5015599;28;20038;-44
2021/12/04 03:14:46;;;;;;;0.63;0.63;;;8.80;75.50;;;;;;5018951;28;20049;-44
2021/12/04 03:17:20;;;;;;;1.05;0.80;;;8.80;75.50;;;;;;5028787;28;20061;-43
2021/12/04 03:19:50;;;;;;;0.80;0.68;;;8.80;75.50;;;;;;5032178;28;20068;-45
2021/12/04 03:22:18;;;;;;;1.27;1.13;;;8.80;75.50;;;;;;5015836;28;20050;-45
2021/12/04 03:24:46;;;;;;;1.33;1.20;;;8.80;75.40;;;;;;5031033;28;20077;-44
2021/12/04 03:27:16;;;;;;;1.27;1.10;;;8.80;75.40;;;;;;5031538;28;20095;-44
2021/12/04 03:29:49;;;;;;;2.40;1.67;;;8.80;75.50;;;;;;5026261;28;20084;-46
2021/12/04 03:40:00;;;;;;;2.95;1.50;;;8.80;75.50;;;;;;5029975;28;20045;-46
2021/12/04 03:41:02;;;;;;;1.58;1.25;;;8.90;75.50;;;;;;5009819;28;20045;-45
2021/12/04 03:43:30;;;;;;;2.17;1.50;;;8.90;75.60;;;;;;5030783;28;20571;-44
2021/12/04 03:46:02;;;;;;;1.58;1.23;;;8.90;75.60;;;;;;4992169;28;20042;-45
2021/12/04 03:51:03;;;;;;;1.80;1.58;;;8.80;75.40;;;;;;5015020;28;20069;-44
2021/12/04 03:53:32;;;;;;;1.20;1.10;;;8.90;75.50;;;;;;5030078;28;20037;-50
2021/12/04 03:55:59;;;;;;;1.73;1.60;;;8.80;75.40;;;;;;5030581;28;20065;-49
2021/12/04 03:58:31;;;;;;;0.88;0.88;;;8.80;75.40;;;;;;5024384;28;20045;-47
2021/12/04 04:00:58;;;;;;;1.27;1.17;;;8.80;75.50;;;;;;5012239;28;20046;-44
2021/12/04 04:03:28;;;;;;;2.13;1.25;;;8.80;75.50;;;;;;5007263;28;20050;-45
2021/12/04 04:05:55;;;;;;;1.60;1.50;;;8.80;75.50;;;;;;5004953;28;20100;-45
2021/12/04 04:08:22;;;;;;;1.92;1.55;;;8.80;75.60;;;;;;5006569;28;20690;-45
2021/12/04 04:10:52;;;;;;;2.20;2.00;;;8.80;75.70;;;;;;5003986;28;20449;-46
2021/12/04 04:13:22;;;;;;;2.75;1.50;;;8.80;75.60;;;;;;5008104;28;20041;-49
2021/12/04 04:15:49;;;;;;;1.63;1.52;;;8.80;75.60;;;;;;5000475;28;20034;-48
2021/12/04 04:18:16;;;;;;;2.03;1.63;;;8.80;75.50;;;;;;5000490;28;20046;-46
2021/12/04 04:20:43;;;;;;;2.00;1.77;;;8.80;75.50;;;;;;5008342;28;20108;-46
2021/12/04 04:23:10;;;;;;;1.50;1.38;;;8.80;75.50;;;;;;5006035;28;20053;-47
2021/12/04 04:25:36;;;;;;;2.00;1.50;;;8.80;75.30;;;;;;5000498;28;20069;-47
2021/12/04 04:28:03;;;;;;;1.20;1.10;;;8.80;75.30;;;;;;5020548;22;20050;-46
2021/12/04 04:30:34;;;;;;;1.92;1.50;;;8.80;75.40;;;;;;5019456;28;20045;-45
2021/12/04 04:33:02;;;;;;;1.83;1.65;;;8.80;75.30;;;;;;5010411;28;20538;-45
2021/12/04 04:35:36;;;;;;;1.98;1.40;;;8.80;75.30;;;;;;5009381;28;20068;-46
2021/12/04 05:11:19;;;;;;;1.10;1.00;;;8.80;75.40;;;;;;5006290;28;20101;-46
2021/12/04 05:13:46;;;;;;;0.90;0.90;;;8.80;75.40;;;;;;5014751;28;20037;-46
2021/12/04 05:16:17;;;;;;;3.10;1.08;;;8.70;75.40;;;;;;5020960;28;20041;-46
2021/12/04 05:19:00;;;;;;;2.55;1.08;;;8.80;75.40;;;;;;5022175;28;20042;-46
2021/12/04 05:21:32;;;;;;;3.83;1.20;;;8.70;75.40;;;;;;5025258;28;20053;-45
2021/12/04 05:24:04;;;;;;;2.40;1.00;;;8.80;75.40;;;;;;5016415;28;20038;-46
2021/12/04 05:26:33;;;;;;;0.88;0.88;;;8.70;75.40;;;;;;5021241;28;20055;-46
2021/12/04 05:29:01;;;;;;;2.45;1.08;;;8.80;75.40;;;;;;5030072;28;20049;-47
2021/12/04 05:31:30;;;;;;;2.22;1.58;;;8.80;75.30;;;;;;5027079;28;20123;-47
2021/12/04 05:33:57;;;;;;;2.75;1.08;;;8.80;75.40;;;;;;5012432;28;20037;-46
2021/12/04 05:36:24;;;;;;;1.23;1.02;;;8.80;75.50;;;;;;5027168;28;20583;-45
2021/12/04 05:38:52;;;;;;;2.05;1.35;;;8.70;75.40;;;;;;5030119;28;20481;-45
2021/12/04 05:41:19;;;;;;;2.83;1.33;;;8.70;75.40;;;;;;5020959;28;20038;-46
2021/12/04 05:43:49;;;;;;;3.17;2.40;;;8.80;75.40;;;;;;5016029;28;20052;-46
2021/12/04 05:46:22;;;;;;;3.00;2.20;;;8.70;75.30;;;;;;5025220;28;20587;-46
2021/12/04 05:48:57;;;;;;;3.15;2.55;;;8.70;75.30;;;;;;5029150;28;20422;-46
2021/12/04 05:56:51;;;;;;;3.08;2.60;;;8.80;75.50;;;;;;5015035;28;20072;-46
2021/12/04 05:59:18;;;;;;;3.70;2.63;;;8.70;75.40;;;;;;5028804;28;20498;-46
2021/12/04 06:01:44;;;;;;;3.55;2.78;;;8.80;75.40;;;;;;5007727;28;20041;-46
2021/12/04 06:04:11;;;;;;;3.85;3.35;;;8.70;75.30;;;;;;5026743;28;20592;-45
2021/12/04 06:06:40;;;;;;;3.28;2.50;;;8.70;75.30;;;;;;4992361;28;20050;-46
2021/12/04 06:09:09;;;;;;;2.50;2.30;;;8.80;75.50;;;;;;5008348;28;20469;-46
2021/12/04 06:11:39;;;;;;;1.83;1.30;;;8.70;75.30;;;;;;5015323;28;20072;-45
2021/12/04 06:14:09;;;;;;;3.97;2.72;;;8.80;75.40;;;;;;5029341;28;20034;-45
2021/12/04 06:16:36;;;;;;;2.67;2.47;;;8.70;75.30;;;;;;5009470;28;20100;-46
2021/12/04 06:19:24;;;;;;;2.20;1.95;;;8.80;75.40;;;;;;5008367;28;20453;-45
2021/12/04 06:24:43;;;;;;;1.77;1.67;;;8.80;75.30;;;;;;5022179;28;20053;-45
2021/12/04 06:27:10;;;;;;;3.03;2.45;;;8.70;75.30;;;;;;5016309;28;20050;-46
2021/12/04 06:29:37;;;;;;;2.60;1.90;;;8.80;76.00;;;;;;5020655;28;20041;-46
2021/12/04 06:32:04;;;;;;;4.43;3.00;;;8.80;75.30;;;;;;5028473;28;20115;-46
2021/12/04 06:34:33;;;;;;;2.67;2.47;;;8.80;75.30;;;;;;5028292;28;20598;-44
2021/12/04 06:37:00;;;;;;;4.10;2.15;;;8.80;75.30;;;;;;5010189;28;20064;-46
2021/12/04 06:39:27;;;;;;;2.60;2.40;;;8.80;75.40;;;;;;5010336;28;20050;-45
2021/12/04 06:41:58;;;;;;;2.60;2.40;;;8.70;75.30;;;;;;5020902;28;20412;-50
2021/12/04 06:44:25;;;;;;;2.80;2.53;;;8.80;75.30;;;;;;5024078;28;20046;-49
2021/12/04 06:46:53;;;;;;;3.67;2.75;;;8.80;75.30;;;;;;5012714;28;20049;-49
2021/12/04 06:49:28;;;;;;;3.13;2.83;;;8.80;75.20;;;;;;5025393;28;20060;-50
2021/12/04 06:51:58;;;;;;;4.70;1.88;;;8.70;75.10;;;;;;5030319;28;20099;-48
2021/12/04 06:54:29;;;;;;;2.95;2.00;;;8.70;75.30;;;;;;5033202;28;20041;-49
2021/12/04 06:56:56;;;;;;;2.78;2.28;;;8.80;75.40;;;;;;5008205;28;20048;-49
2021/12/04 06:59:27;;;;;;;2.88;2.15;;;8.80;75.30;;;;;;5014387;28;20089;-48
2021/12/04 07:01:54;;;;;;;4.15;1.98;;;8.80;75.30;;;;;;5005150;28;20050;-49
2021/12/04 07:04:29;;;;;;;4.63;2.50;;;8.70;75.30;;;;;;5001288;28;21445;-47
2021/12/04 07:06:58;;;;;;;2.88;2.42;;;8.80;75.30;;;;;;5007502;28;20053;-49
2021/12/04 07:09:29;;;;;;;5.25;2.13;;;8.70;75.20;;;;;;5023201;28;20056;-55
2021/12/04 07:11:57;;;;;;;3.03;2.10;;;8.80;75.20;;;;;;5031279;28;20050;-55
2021/12/04 07:14:26;;;;;;;3.05;2.05;;;8.70;75.20;;;;;;5019422;28;20039;-52
2021/12/04 07:17:02;;;;;;;4.70;2.55;;;8.70;75.20;;;;;;5010837;28;20099;-56
2021/12/04 07:19:30;;;;;;;5.25;2.85;;;8.70;75.20;;;;;;5027411;28;20497;-55
2021/12/04 07:22:02;;;;;;;3.80;3.10;;;8.80;75.20;;;;;;5031305;28;20103;-56
2021/12/04 07:24:31;;;;;;;6.35;3.65;;;8.80;75.30;;;;;;5004057;28;20061;-55
2021/12/04 07:26:58;;;;;;;5.95;3.40;;;8.70;75.30;;;;;;5001244;28;20123;-54
2021/12/04 07:29:27;;;;;;;3.38;2.78;;;8.80;75.30;;;;;;5011070;28;20111;-56
2021/12/04 07:31:55;;;;;;;3.33;2.70;;;8.80;75.30;;;;;;5000411;28;21251;-55
2021/12/04 07:34:22;;;;;;;3.20;2.72;;;8.80;75.30;;;;;;5002336;28;20498;-56
2021/12/04 07:36:49;;;;;;;3.53;3.00;;;8.80;75.30;;;;;;5001532;28;20045;-55
2021/12/04 07:39:18;;;;;;;2.90;2.60;;;8.80;75.30;;;;;;5018090;28;20096;-55
2021/12/04 07:41:44;;;;;;;4.03;2.95;;;8.80;75.40;;;;;;5003354;28;20042;-55
2021/12/04 07:44:11;;;;;;;4.10;3.70;;;8.80;75.30;;;;;;5005346;28;20054;-55
2021/12/04 07:46:41;;;;;;;3.85;3.50;;;8.80;75.30;;;;;;5002957;28;20038;-56
2021/12/04 07:49:08;;;;;;;4.53;2.95;;;8.80;75.30;;;;;;5004832;28;20051;-55
2021/12/04 07:51:35;;;;;;;3.00;2.70;;;9.00;75.40;;;;;;4998582;28;20493;-56
2021/12/04 07:54:03;;;;;;;2.65;2.45;;;8.80;75.30;;;;;;5008436;28;20038;-56
2021/12/04 07:56:30;;;;;;;3.00;1.98;;;8.90;75.30;;;;;;5002672;28;20802;-55
2021/12/04 07:58:58;;;;;;;2.25;2.05;;;8.90;75.20;;;;;;5017880;28;20046;-54
2021/12/04 08:01:27;;;;;;;2.20;2.03;;;8.90;75.20;;;;;;5004299;28;20077;-55
2021/12/04 08:03:56;;;;;;;3.55;2.72;;;8.90;75.20;;;;;;5011440;28;20383;-55
2021/12/04 08:06:26;;;;;;;2.40;2.17;;;8.90;75.20;;;;;;4998520;28;20100;-54
2021/12/04 08:08:58;;;;;;;2.92;2.63;;;8.80;75.20;;;;;;5015159;28;20123;-55
2021/12/04 08:11:30;;;;;;;2.50;2.30;;;8.90;75.20;;;;;;4995689;28;20409;-56
2021/12/04 08:14:00;;;;;;;2.65;2.30;;;8.90;75.10;;;;;;5016017;28;20620;-56
2021/12/04 08:16:27;;;;;;;2.58;2.38;;;8.90;75.10;;;;;;4998896;28;20084;-55
2021/12/04 08:18:54;;;;;;;2.67;2.13;;;8.90;75.20;;;;;;5004031;28;20050;-53
2021/12/04 08:21:21;;;;;;;2.75;2.22;;;8.90;75.20;;;;;;4997130;28;20096;-54
2021/12/04 08:23:48;;;;;;;4.00;2.40;;;8.90;75.10;;;;;;5008011;28;20633;-56
2021/12/04 08:26:16;;;;;;;2.03;1.90;;;9.00;75.10;;;;;;4997027;28;20395;-56
2021/12/04 08:28:44;;;;;;;2.47;2.20;;;8.90;75.20;;;;;;4999532;28;20045;-54
2021/12/04 08:31:12;;;;;;;3.13;2.03;;;9.00;75.20;;;;;;4996229;28;20057;-52
2021/12/04 08:33:39;;;;;;;2.45;2.10;;;9.00;75.30;;;;;;5010915;28;20045;-54
2021/12/04 08:36:09;;;;;;;2.58;2.38;;;9.00;75.20;;;;;;4998583;28;20046;-54
2021/12/04 08:38:37;;;;;;;2.20;2.00;;;9.10;75.30;;;;;;5005196;28;20068;-56
2021/12/04 08:41:05;;;;;;;3.38;1.70;;;9.10;75.00;;;;;;4999093;28;20418;-56
2021/12/04 08:43:32;;;;;;;2.55;1.98;;;9.10;74.80;;;;;;5014769;28;20115;-55
2021/12/04 08:46:03;;;;;;;1.63;1.52;;;9.10;74.80;;;;;;4992777;28;20690;-55
2021/12/04 08:48:31;;;;;;;1.60;1.45;;;9.20;74.70;;;;;;4995461;28;20042;-53
2021/12/04 08:50:59;;;;;;;1.95;1.77;;;9.10;74.70;;;;;;4993491;28;20053;-53
2021/12/04 08:53:29;;;;;;;2.35;2.15;;;9.10;74.70;;;;;;5011860;28;20628;-55
2021/12/04 08:55:56;;;;;;;2.08;1.80;;;9.20;74.70;;;;;;4997277;28;20090;-56
2021/12/04 08:58:23;;;;;;;1.92;1.70;;;9.20;74.70;;;;;;5002851;28;20108;-57
2021/12/04 09:00:55;;;;;;;2.42;2.22;;;9.20;74.80;;;;;;4993515;28;20049;-52
2021/12/04 09:03:30;;;;;;;1.92;1.65;;;9.20;74.90;;;;;;5010936;28;20069;-54
2021/12/04 09:05:57;;;;;;;3.25;1.65;;;9.30;74.80;;;;;;4998215;28;20045;-55
2021/12/04 09:08:28;;;;;;;2.20;2.00;;;9.30;74.80;;;;;;5006441;28;20099;-55
2021/12/04 09:11:00;;;;;;;2.28;2.08;;;9.40;74.80;;;;;;4996862;28;20073;-55
2021/12/04 09:13:28;;;;;;;1.85;1.75;;;9.40;74.60;;;;;;5022741;28;20033;-55
2021/12/04 09:15:57;;;;;;;1.95;1.85;;;9.40;74.70;;;;;;5003790;28;20502;-55
2021/12/04 09:18:24;;;;;;;2.38;1.90;;;9.40;74.60;;;;;;5008346;28;20576;-56
2021/12/04 09:20:56;;;;;;;3.25;2.35;;;9.50;74.50;;;;;;4994850;28;20106;-55
2021/12/04 09:23:27;;;;;;;2.70;2.50;;;9.50;74.50;;;;;;5009385;28;20092;-56
2021/12/04 09:25:58;;;;;;;2.20;2.00;;;9.50;74.50;;;;;;4995451;28;20038;-52
2021/12/04 09:28:47;;;;;;;2.35;1.92;;;9.50;74.50;;;;;;5001703;28;20053;-54
2021/12/04 10:01:36;;;;;;;2.75;2.47;;;9.80;73.80;;;;;;4993553;28;20042;-51
2021/12/04 10:04:23;;;;;;;2.50;2.10;;;9.80;73.90;;;;;;5005708;28;20571;-52
2021/12/04 10:12:55;;;;;;;2.90;2.65;;;9.90;74.10;;;;;;5006450;28;20104;-53
2021/12/04 10:34:28;;;;;;;4.38;2.33;;;10.30;73.60;;;;;;5018453;28;20044;-54
2021/12/04 10:37:11;;;;;;;3.40;1.70;;;10.30;73.70;;;;;;5014127;28;20044;-54
2021/12/04 10:39:39;;;;;;;2.83;2.05;;;10.30;73.20;;;;;;5004176;28;20034;-55
2021/12/04 10:42:21;;;;;;;3.25;1.75;;;10.30;73.30;;;;;;5008129;28;20049;-55
2021/12/04 10:44:53;;;;;;;5.07;2.05;;;10.30;73.00;;;;;;4998324;28;20045;-53
2021/12/04 10:47:26;;;;;;;4.93;2.05;;;10.30;72.60;;;;;;5010861;28;20431;-52
2021/12/04 10:52:51;;;;;;;2.60;1.42;;;10.30;72.70;;;;;;5009916;28;20037;-55
2021/12/04 10:56:25;;;;;;;6.25;2.08;;;10.30;72.90;;;;;;5009266;28;20041;-52
2021/12/04 11:03:56;;;;;;;3.00;2.05;;;10.20;72.90;;;;;;5017984;28;20420;-55
2021/12/04 11:26:11;;;;;;;7.50;3.65;;;10.30;73.20;;;;;;5003672;28;20073;-55
2021/12/04 11:37:03;;;;;;;3.13;2.28;;;10.40;73.20;;;;;;4999736;28;20048;-54
2021/12/04 11:39:58;;;;;;;4.47;2.47;;;10.40;73.10;;;;;;5007346;28;20516;-55
2021/12/04 11:45:04;;;;;;;3.90;2.63;;;10.50;72.70;;;;;;5013150;28;20400;-55
2021/12/04 11:47:43;;;;;;;5.72;3.70;;;10.50;73.30;;;;;;5005453;28;20042;-56
2021/12/04 11:50:24;;;;;;;5.30;1.92;;;10.60;72.30;;;;;;5008133;28;20041;-54
2021/12/04 11:52:55;;;;;;;2.03;1.90;;;10.60;72.30;;;;;;5021655;22;20049;-76
2021/12/04 11:55:24;;;;;;;4.60;2.50;;;10.60;72.40;;;;;;5006826;28;20521;-75
2021/12/04 11:57:52;;;;;;;6.75;3.20;;;10.50;72.40;;;;;;5025948;28;20041;-78
2021/12/04 12:00:27;;;;;;;7.38;2.53;;;10.70;72.60;;;;;;5011409;28;20049;-75
2021/12/04 12:03:16;;;;;;;4.47;3.08;;;10.60;72.40;;;;;;5001934;28;20038;-74
2021/12/04 12:05:46;;;;;;;3.30;1.73;;;10.60;72.50;;;;;;4990966;28;20049;-76
2021/12/04 12:08:42;;;;;;;3.83;2.25;;;10.60;72.40;;;;;;5002284;28;20442;-75
2021/12/04 12:11:25;;;;;;;3.20;2.17;;;10.70;71.40;;;;;;4986883;28;20053;-74
2021/12/04 12:13:59;;;;;;;2.47;1.77;;;10.60;71.90;;;;;;5011777;28;20196;-74
2021/12/04 12:16:31;;;;;;;3.88;2.17;;;10.60;72.00;;;;;;4988268;28;20053;-79
2021/12/04 12:19:02;;;;;;;5.95;2.20;;;10.70;71.90;;;;;;4987867;28;20046;-78
2021/12/04 12:21:49;;;;;;;2.95;1.85;;;10.60;71.80;;;;;;4993243;28;20062;-75
2021/12/04 12:36:09;;;;;;;3.13;2.22;;;10.50;71.50;;;;;;4984283;28;20038;-77
2021/12/04 12:38:45;;;;;;;3.22;2.22;;;10.50;71.80;;;;;;5006869;28;20041;-77
2021/12/04 12:41:26;;;;;;;3.00;2.25;;;10.40;71.70;;;;;;4989027;28;20403;-76
2021/12/04 12:43:53;;;;;;;4.18;2.40;;;10.40;71.90;;;;;;5012195;28;20494;-76
2021/12/04 12:46:31;;;;;;;3.78;3.17;;;10.30;72.20;;;;;;4995506;28;20100;-74
2021/12/04 12:48:58;;;;;;;2.83;1.95;;;10.30;72.20;;;;;;5017338;28;20132;-74
2021/12/04 12:51:29;;;;;;;3.33;2.42;;;10.30;72.30;;;;;;4997222;28;20064;-76
2021/12/04 12:53:59;;;;;;;4.85;2.50;;;10.20;72.70;;;;;;5007084;28;20042;-74
2021/12/04 12:56:28;;;;;;;3.78;3.13;;;10.30;73.00;;;;;;4991317;28;20734;-74
2021/12/04 12:58:59;;;;;;;4.13;2.58;;;10.20;73.10;;;;;;5009034;28;20045;-74
2021/12/04 13:13:36;;;;;;;3.58;3.28;;;10.10;73.90;;;;;;5000307;28;20053;-77
2021/12/04 13:16:29;;;;;;;4.45;3.67;;;10.10;74.10;;;;;;4987386;28;20042;-74
2021/12/04 13:19:01;;;;;;;4.72;3.70;;;10.10;74.50;;;;;;5002427;28;20034;-75
2021/12/04 13:21:28;;;;;;;3.88;3.50;;;10.00;74.40;;;;;;5007460;28;20050;-76
2021/12/04 13:23:57;;;;;;;3.58;2.92;;;10.00;74.40;;;;;;5001866;28;20045;-76
2021/12/04 13:26:28;;;;;;;3.72;3.05;;;10.00;74.30;;;;;;4994047;28;20065;-75
2021/12/04 13:28:56;;;;;;;3.00;2.67;;;10.00;74.30;;;;;;5019870;28;20049;-76
2021/12/04 13:31:23;;;;;;;2.88;2.40;;;10.00;74.20;;;;;;4993228;28;20037;-76
2021/12/04 13:33:51;;;;;;;3.33;2.53;;;10.00;74.10;;;;;;5023683;28;20045;-76
2021/12/04 13:36:24;;;;;;;3.95;3.50;;;10.00;74.30;;;;;;4997497;28;20141;-76
2021/12/04 13:39:12;;;;;;;5.63;4.50;;;10.00;74.50;;;;;;4999318;28;20034;-75
2021/12/04 13:41:41;;;;;;;5.38;4.28;;;9.90;74.50;;;;;;4989012;28;20089;-76
2021/12/04 13:44:10;;;;;;;4.22;3.42;;;9.90;74.70;;;;;;5008340;28;20104;-76
2021/12/04 13:46:43;;;;;;;4.20;3.75;;;10.00;74.80;;;;;;4993333;28;20065;-75
2021/12/04 13:49:12;;;;;;;3.60;3.30;;;10.00;74.90;;;;;;4993472;28;20050;-76
2021/12/04 13:51:39;;;;;;;4.25;3.80;;;10.10;75.10;;;;;;4983292;28;20334;-76
2021/12/04 13:54:07;;;;;;;4.10;3.80;;;10.00;75.00;;;;;;5005697;28;20034;-76
2021/12/04 13:56:35;;;;;;;4.93;4.43;;;10.00;74.90;;;;;;4988450;28;20450;-76
2021/12/04 13:59:05;;;;;;;6.18;4.45;;;10.00;75.60;;;;;;5033410;28;20042;-76
2021/12/04 14:01:41;;;;;;;5.63;4.47;;;10.00;74.90;;;;;;4992726;28;20042;-76
2021/12/04 14:04:16;;;;;;;6.55;4.43;;;9.90;75.10;;;;;;5019014;28;20417;-76
2021/12/04 14:06:59;;;;;;;4.78;4.13;;;10.00;75.10;;;;;;4988601;28;20046;-76
2021/12/04 14:09:38;;;;;;;7.55;6.22;;;10.00;75.20;;;;;;5001143;28;20050;-75
2021/12/04 14:12:06;;;;;;;11.52;8.73;;;10.00;75.10;;;;;;4997677;28;20058;-76
2021/12/04 14:14:34;;;;;;;8.57;6.05;;;10.00;75.00;;;;;;5023580;28;20441;-75
2021/12/04 14:17:11;;;;;;;6.15;4.85;;;10.00;74.90;;;;;;5004628;28;20422;-75
2021/12/04 14:19:40;;;;;;;8.57;5.30;;;10.00;74.80;;;;;;5001544;28;20700;-75
2021/12/04 14:22:10;;;;;;;5.70;4.93;;;9.90;74.90;;;;;;4981213;28;20429;-76
2021/12/04 14:24:43;;;;;;;5.57;4.38;;;9.90;74.80;;;;;;5006576;28;20429;-76
2021/12/04 14:27:12;;;;;;;5.20;3.83;;;9.80;74.80;;;;;;5015133;28;20068;-75
2021/12/04 14:29:42;;;;;;;3.35;3.05;;;9.90;74.90;;;;;;5016505;28;20087;-75
2021/12/04 14:32:10;;;;;;;5.20;3.63;;;9.80;74.80;;;;;;4992611;28;20046;-75
2021/12/04 14:34:38;;;;;;;4.07;3.20;;;9.80;74.90;;;;;;5003708;28;20080;-76
2021/12/04 14:37:16;;;;;;;4.13;3.72;;;9.80;75.10;;;;;;4994273;28;20044;-76
2021/12/04 14:39:48;;;;;;;4.88;4.20;;;9.70;75.10;;;;;;5005809;28;20046;-76
2021/12/04 14:42:25;;;;;;;5.32;4.60;;;9.70;75.20;;;;;;5002051;28;20038;-76
2021/12/04 14:45:00;;;;;;;5.65;3.67;;;9.70;75.10;;;;;;4987497;28;20153;-76
2021/12/04 14:47:35;;;;;;;5.40;4.90;;;9.60;75.10;;;;;;5004055;28;20401;-76
2021/12/04 14:50:05;;;;;;;5.35;4.85;;;9.60;75.30;;;;;;4989560;28;20458;-76
2021/12/04 14:52:34;;;;;;;6.10;4.90;;;9.50;75.20;;;;;;4995223;28;20046;-77
2021/12/04 14:55:29;;;;;;;6.05;4.63;;;9.60;75.40;;;;;;4982911;28;21381;-76
2021/12/04 14:57:57;;;;;;;6.10;4.47;;;9.50;75.70;;;;;;5016602;28;20041;-76
2021/12/04 15:00:36;;;;;;;5.55;4.82;;;9.60;75.60;;;;;;5007680;28;20134;-76
2021/12/04 15:03:08;;;;;;;6.78;5.28;;;9.50;75.70;;;;;;5012467;28;20042;-76
2021/12/04 15:05:45;;;;;;;7.28;5.85;;;9.50;75.70;;;;;;4999513;28;20042;-76
2021/12/04 15:08:20;;;;;;;8.98;6.80;;;9.40;76.10;;;;;;5008591;28;20497;-76
2021/12/04 15:10:55;;;;;;;9.27;6.63;;;9.40;76.10;;;;;;4988628;28;20046;-76
2021/12/04 15:13:24;;;;;;;6.32;5.72;;;9.40;76.00;;;;;;4998033;28;20045;-76
2021/12/04 15:15:53;;;;;;;6.72;5.75;;;9.40;76.10;;;;;;4986001;28;20558;-76
2021/12/04 15:18:24;;;;;;;6.50;5.47;;;9.40;76.20;;;;;;5006974;28;20042;-76
2021/12/04 15:21:00;;;;;;;6.78;5.20;;;9.40;76.20;;;;;;4984156;28;20525;-76
2021/12/04 15:23:29;;;;;;;7.10;5.13;;;9.40;76.40;;;;;;4999764;28;20053;-76
2021/12/04 15:26:11;;;;;;;7.18;5.32;;;9.40;76.40;;;;;;4993907;28;20375;-75
2021/12/04 15:28:45;;;;;;;6.30;5.47;;;9.40;76.60;;;;;;4999705;28;20046;-76
2021/12/04 15:31:12;;;;;;;5.80;5.22;;;9.40;76.60;;;;;;4991354;28;20038;-76
2021/12/04 15:33:42;;;;;;;5.32;4.82;;;9.40;76.60;;;;;;4997252;28;20649;-76
2021/12/04 15:36:37;;;;;;;6.00;5.07;;;9.30;76.60;;;;;;4991104;28;20152;-76
2021/12/04 15:39:32;;;;;;;7.25;5.35;;;9.30;76.60;;;;;;4995589;28;20418;-76
2021/12/04 15:45:26;;;;;;;10.32;8.63;;;9.30;76.40;;;;;;4967469;28;20050;-76
2021/12/04 15:48:21;;;;;;;9.43;8.43;;;9.30;76.30;;;;;;4994797;28;20422;-76
2021/12/04 15:51:18;;;;;;;10.52;8.30;;;9.50;76.70;;;;;;5003264;28;20042;-76
2021/12/04 15:53:54;;;;;;;8.55;7.70;;;9.30;76.50;;;;;;5002976;28;20034;-77
2021/12/04 15:56:42;;;;;;;9.45;7.55;;;9.20;76.70;;;;;;4984862;28;20038;-76
2021/12/04 15:59:24;;;;;;;7.65;6.85;;;9.20;76.80;;;;;;5002434;28;20046;-76
2021/12/04 16:01:54;;;;;;;7.30;6.30;;;9.20;76.90;;;;;;4990460;28;20405;-76
2021/12/04 16:04:27;;;;;;;5.88;5.40;;;9.20;76.80;;;;;;5015515;28;20069;-76
2021/12/04 16:06:58;;;;;;;5.10;4.65;;;9.40;77.10;;;;;;4995085;28;20050;-76
2021/12/04 16:09:32;;;;;;;5.28;4.78;;;9.10;76.80;;;;;;5008841;28;20450;-76
2021/12/04 16:12:08;;;;;;;6.15;5.55;;;9.10;76.80;;;;;;4998701;28;20042;-76
2021/12/04 16:14:38;;;;;;;5.72;5.00;;;9.10;77.40;;;;;;5016519;28;20591;-77
2021/12/04 16:17:07;;;;;;;6.38;4.90;;;9.10;76.90;;;;;;4994333;28;20046;-77
2021/12/04 16:19:35;;;;;;;4.82;4.32;;;9.10;76.90;;;;;;5007762;28;20053;-76